Time;durP1;ratioP1;P1;durP2;ratioP2;P2;SDS_P1;SDS_P2;PMS_P1;PMS_P2;Temp;Humidity;BMP_temperature;BMP_pressure;BME280_temperature;BME280_humidity;BME280_pressure;Samples;Min_cycle;Max_cycle;Signal;HPM_P1;HPM_P2
2023/07/15 00:01:25;;;;;;;2.33;1.50;;;32.10;91.40;;;;;;5091452;28;20278;-82
2023/07/15 00:03:56;;;;;;;2.08;1.30;;;31.90;91.70;;;;;;5092612;28;20201;-82
2023/07/15 00:06:27;;;;;;;2.00;1.38;;;31.70;92.00;;;;;;5092479;28;20209;-83
2023/07/15 00:08:58;;;;;;;1.50;1.40;;;31.70;92.20;;;;;;5092149;28;20324;-83
2023/07/15 00:11:32;;;;;;;2.00;1.45;;;31.70;92.00;;;;;;5091531;28;20206;-82
2023/07/15 00:14:04;;;;;;;1.63;1.40;;;31.90;92.20;;;;;;5087209;28;20679;-82
2023/07/15 00:16:36;;;;;;;3.25;1.40;;;32.00;91.00;;;;;;5091078;28;20203;-82
2023/07/15 00:19:07;;;;;;;3.38;1.30;;;31.90;90.90;;;;;;5091967;28;20356;-83
2023/07/15 00:21:38;;;;;;;2.67;1.52;;;31.70;92.60;;;;;;5090654;28;20206;-83
2023/07/15 00:24:13;;;;;;;1.45;1.35;;;31.70;91.20;;;;;;5092344;28;20282;-82
2023/07/15 00:26:47;;;;;;;2.17;1.52;;;31.70;92.00;;;;;;5092213;28;20203;-82
2023/07/15 00:29:19;;;;;;;1.40;1.25;;;31.70;92.40;;;;;;5090685;28;20205;-82
2023/07/15 00:31:52;;;;;;;3.17;1.65;;;31.80;92.30;;;;;;5084641;28;20207;-82
2023/07/15 00:34:23;;;;;;;2.20;1.50;;;31.80;92.00;;;;;;5090395;28;20191;-82
2023/07/15 00:36:53;;;;;;;1.38;1.20;;;31.90;94.50;;;;;;5092150;28;20229;-82
2023/07/15 00:39:25;;;;;;;1.92;1.40;;;31.80;90.80;;;;;;5090442;28;20223;-83
2023/07/15 00:41:59;;;;;;;2.13;1.45;;;31.70;91.80;;;;;;5103623;28;20222;-82
2023/07/15 00:44:28;;;;;;;2.22;1.50;;;31.60;91.60;;;;;;5096799;28;20669;-83
2023/07/15 00:47:23;;;;;;;1.95;1.33;;;31.50;91.70;;;;;;5081098;28;20285;-82
2023/07/15 00:49:54;;;;;;;1.75;1.40;;;31.30;91.00;;;;;;5085448;28;20251;-82
2023/07/15 00:52:25;;;;;;;1.75;1.65;;;31.30;91.50;;;;;;5087336;28;20404;-81
2023/07/15 00:54:57;;;;;;;1.30;1.20;;;31.20;90.90;;;;;;5085789;28;20195;-82
2023/07/15 00:57:28;;;;;;;1.92;1.73;;;31.00;91.00;;;;;;5088550;28;20282;-81
2023/07/15 00:59:59;;;;;;;3.50;1.83;;;31.10;90.30;;;;;;5088405;28;20607;-83
2023/07/15 01:02:32;;;;;;;3.08;1.60;;;31.50;91.70;;;;;;5086710;28;20235;-84
2023/07/15 01:05:03;;;;;;;2.67;1.40;;;32.10;91.70;;;;;;5088880;28;20221;-82
2023/07/15 01:07:34;;;;;;;2.05;1.38;;;32.70;91.20;;;;;;5084463;28;20218;-83
2023/07/15 01:10:09;;;;;;;1.65;1.33;;;33.10;90.90;;;;;;5089507;28;20285;-83
2023/07/15 01:12:40;;;;;;;1.90;1.80;;;33.10;90.20;;;;;;5086893;28;20211;-82
2023/07/15 01:15:11;;;;;;;2.72;1.30;;;33.30;91.90;;;;;;5085885;28;20233;-81
2023/07/15 01:17:44;;;;;;;1.73;1.33;;;33.30;90.30;;;;;;5089234;28;20219;-81
2023/07/15 01:20:16;;;;;;;2.38;1.58;;;33.50;90.10;;;;;;5085976;28;20863;-81
2023/07/15 01:22:49;;;;;;;2.38;1.48;;;33.70;90.80;;;;;;5086134;28;20294;-85
2023/07/15 01:25:20;;;;;;;3.55;1.38;;;34.00;90.00;;;;;;5088813;28;20219;-82
2023/07/15 01:27:53;;;;;;;4.97;1.27;;;34.20;89.70;;;;;;5086790;28;20252;-83
2023/07/15 01:30:24;;;;;;;3.67;1.40;;;34.10;89.20;;;;;;5088024;28;20290;-82
2023/07/15 01:32:55;;;;;;;2.90;1.58;;;34.20;90.10;;;;;;5085559;28;20203;-82
2023/07/15 01:35:25;;;;;;;1.50;1.40;;;34.20;88.40;;;;;;5081155;28;20231;-81
2023/07/15 01:37:58;;;;;;;13.48;7.15;;;33.90;88.00;;;;;;5085594;28;20194;-81
2023/07/15 01:40:29;;;;;;;3.35;1.77;;;33.70;89.30;;;;;;5083941;28;20930;-82
2023/07/15 01:42:59;;;;;;;1.63;1.40;;;33.90;88.00;;;;;;5080127;28;20232;-83
2023/07/15 01:45:30;;;;;;;2.08;1.30;;;33.90;89.30;;;;;;5085844;28;20211;-83
2023/07/15 01:48:01;;;;;;;1.70;1.20;;;33.90;86.00;;;;;;5086974;28;20662;-81
2023/07/15 01:50:32;;;;;;;4.45;1.20;;;33.40;87.00;;;;;;5086798;28;20195;-80
2023/07/15 01:53:04;;;;;;;2.25;1.30;;;32.90;86.30;;;;;;5076672;28;20210;-82
2023/07/15 01:55:35;;;;;;;3.05;1.38;;;32.60;87.50;;;;;;5083703;28;20203;-82
2023/07/15 01:58:06;;;;;;;1.25;1.15;;;32.50;88.00;;;;;;5088574;28;20297;-81
2023/07/15 02:00:37;;;;;;;4.07;1.50;;;32.50;88.40;;;;;;5092621;28;20233;-83
2023/07/15 02:03:08;;;;;;;2.90;1.50;;;32.80;87.80;;;;;;5092348;28;20231;-82
2023/07/15 02:05:39;;;;;;;2.22;1.23;;;32.70;87.30;;;;;;5089756;28;20206;-82
2023/07/15 02:08:12;;;;;;;1.80;1.30;;;32.50;88.10;;;;;;5091875;28;20583;-82
2023/07/15 02:10:42;;;;;;;2.03;1.42;;;32.10;88.10;;;;;;5093649;28;20191;-85
2023/07/15 02:13:13;;;;;;;2.65;1.20;;;32.00;88.60;;;;;;5092096;28;20211;-82
2023/07/15 02:15:44;;;;;;;1.88;1.30;;;31.40;89.80;;;;;;5090762;28;20930;-82
2023/07/15 02:18:15;;;;;;;2.05;1.30;;;31.10;89.80;;;;;;5094132;28;20211;-82
2023/07/15 02:20:49;;;;;;;2.63;1.30;;;30.50;90.40;;;;;;5093760;28;20233;-82
2023/07/15 02:23:22;;;;;;;1.30;1.08;;;30.10;90.90;;;;;;5092863;28;20206;-83
2023/07/15 02:25:53;;;;;;;1.40;1.10;;;29.70;91.40;;;;;;5094436;28;20290;-81
2023/07/15 02:28:26;;;;;;;2.45;1.40;;;29.40;92.30;;;;;;5094806;28;20238;-80
2023/07/15 02:30:57;;;;;;;1.73;1.55;;;29.30;92.40;;;;;;5093486;28;20209;-82
2023/07/15 02:33:28;;;;;;;2.08;1.20;;;29.00;92.00;;;;;;5091357;28;20195;-81
2023/07/15 02:35:59;;;;;;;1.98;1.55;;;28.80;92.80;;;;;;5090338;28;20218;-81
2023/07/15 02:38:31;;;;;;;1.95;1.60;;;28.50;93.20;;;;;;5094635;28;20207;-81
2023/07/15 02:41:02;;;;;;;4.55;1.67;;;28.30;94.20;;;;;;5093268;28;20668;-81
2023/07/15 02:43:33;;;;;;;3.40;1.43;;;28.10;94.10;;;;;;5094299;28;20188;-81
2023/07/15 02:46:04;;;;;;;2.15;1.67;;;27.80;94.60;;;;;;5094211;28;20204;-82
2023/07/15 02:48:35;;;;;;;2.88;1.80;;;27.60;94.50;;;;;;5094511;28;20207;-83
2023/07/15 02:51:06;;;;;;;2.80;1.50;;;27.50;94.60;;;;;;5093461;28;20211;-80
2023/07/15 02:53:39;;;;;;;3.27;1.57;;;27.40;95.10;;;;;;5090946;28;20217;-81
2023/07/15 02:56:10;;;;;;;1.73;1.50;;;27.30;94.30;;;;;;5098203;28;20266;-82
2023/07/15 02:58:42;;;;;;;2.73;1.50;;;27.20;94.90;;;;;;5103918;28;20248;-82
2023/07/15 03:01:13;;;;;;;1.93;1.30;;;27.00;94.50;;;;;;5100483;28;20260;-81
2023/07/15 03:03:43;;;;;;;2.67;1.57;;;26.90;94.10;;;;;;5109187;28;20198;-82
2023/07/15 03:06:14;;;;;;;4.70;1.53;;;26.80;95.00;;;;;;5094887;28;20199;-81
2023/07/15 03:08:47;;;;;;;1.60;1.30;;;26.70;94.20;;;;;;5094878;28;20727;-81
2023/07/15 03:11:18;;;;;;;2.17;1.40;;;26.60;93.40;;;;;;5088437;28;20203;-81
2023/07/15 03:13:49;;;;;;;2.07;1.30;;;26.50;93.60;;;;;;5090220;28;20274;-82
2023/07/15 03:16:22;;;;;;;2.93;1.30;;;26.40;93.90;;;;;;5094277;28;20645;-82
2023/07/15 03:18:53;;;;;;;2.03;1.40;;;26.30;94.20;;;;;;5093880;28;20194;-81
2023/07/15 03:21:23;;;;;;;1.33;1.17;;;26.30;94.50;;;;;;5093633;28;20229;-81
2023/07/15 03:23:57;;;;;;;1.47;1.20;;;26.10;94.30;;;;;;5094228;28;20213;-82
2023/07/15 03:26:27;;;;;;;1.40;1.10;;;26.00;93.60;;;;;;5093884;28;20190;-83
2023/07/15 03:28:59;;;;;;;2.60;1.30;;;26.00;93.20;;;;;;5093709;28;20234;-81
2023/07/15 03:31:30;;;;;;;1.30;1.20;;;25.90;92.90;;;;;;5089170;28;20304;-81
2023/07/15 03:34:04;;;;;;;3.30;1.70;;;25.70;92.90;;;;;;5089788;28;20205;-82
2023/07/15 03:36:35;;;;;;;2.03;1.43;;;25.60;94.60;;;;;;5094296;28;20211;-82
2023/07/15 03:39:07;;;;;;;11.10;5.57;;;25.40;94.50;;;;;;5093595;28;20302;-82
2023/07/15 03:41:38;;;;;;;4.00;1.40;;;25.20;99.80;;;;;;5092494;28;20223;-81
2023/07/15 03:44:09;;;;;;;3.17;1.27;;;24.80;98.10;;;;;;5093185;28;20211;-81
2023/07/15 03:46:40;;;;;;;1.33;1.20;;;24.50;97.80;;;;;;5093566;28;20191;-82
2023/07/15 03:49:11;;;;;;;1.13;0.93;;;24.40;96.10;;;;;;5093269;28;20264;-80
2023/07/15 03:51:42;;;;;;;1.80;1.30;;;24.20;99.10;;;;;;5086020;28;20567;-80
2023/07/15 03:54:14;;;;;;;1.90;1.10;;;24.20;95.70;;;;;;5093198;28;20211;-82
2023/07/15 03:56:45;;;;;;;1.10;1.00;;;24.10;98.50;;;;;;5093165;28;20206;-81
2023/07/15 03:59:16;;;;;;;1.30;1.20;;;24.10;96.50;;;;;;5093057;28;20207;-82
2023/07/15 04:01:47;;;;;;;1.93;1.00;;;24.00;98.20;;;;;;5091965;28;20225;-81
2023/07/15 04:04:18;;;;;;;2.47;1.00;;;23.90;96.70;;;;;;5093227;28;20200;-82
2023/07/15 04:06:49;;;;;;;1.40;1.00;;;23.90;96.10;;;;;;5093216;28;20566;-82
2023/07/15 04:09:21;;;;;;;2.80;1.00;;;23.70;96.30;;;;;;5090251;28;20218;-82
2023/07/15 04:11:53;;;;;;;1.20;1.10;;;23.70;96.60;;;;;;5089665;28;20206;-81
2023/07/15 04:14:23;;;;;;;2.50;1.30;;;23.60;97.10;;;;;;5092901;28;20199;-81
2023/07/15 04:16:54;;;;;;;1.10;1.00;;;23.50;97.80;;;;;;5092166;28;20195;-81
2023/07/15 04:19:25;;;;;;;2.00;1.27;;;23.40;97.60;;;;;;5092648;28;20218;-85
2023/07/15 04:21:56;;;;;;;4.00;1.40;;;23.30;97.80;;;;;;5091170;28;20234;-81
2023/07/15 04:24:28;;;;;;;1.63;1.10;;;23.20;98.30;;;;;;5092682;28;20962;-81
2023/07/15 04:26:59;;;;;;;1.80;1.27;;;23.10;99.50;;;;;;5092000;28;20311;-81
2023/07/15 04:29:33;;;;;;;3.10;1.07;;;23.10;99.00;;;;;;5092574;28;20195;-80
2023/07/15 04:32:03;;;;;;;3.23;1.20;;;23.00;99.40;;;;;;5089215;28;20199;-81
2023/07/15 04:34:34;;;;;;;1.93;1.50;;;22.90;99.60;;;;;;5092358;28;20195;-81
2023/07/15 04:37:05;;;;;;;3.50;1.10;;;22.90;99.90;;;;;;5092106;28;20815;-81
2023/07/15 04:39:38;;;;;;;2.40;1.33;;;22.80;99.90;;;;;;5092258;28;20213;-81
2023/07/15 04:42:08;;;;;;;2.60;1.40;;;22.80;99.90;;;;;;5091224;28;20218;-82
2023/07/15 04:44:39;;;;;;;1.93;1.33;;;22.80;99.90;;;;;;5092024;28;20191;-82
2023/07/15 04:47:10;;;;;;;1.40;1.30;;;22.70;99.90;;;;;;5091720;28;20660;-82
2023/07/15 04:49:41;;;;;;;2.17;1.43;;;22.60;99.90;;;;;;5092351;28;20282;-80
2023/07/15 04:52:12;;;;;;;2.07;1.30;;;22.60;99.90;;;;;;5091089;28;20234;-81
2023/07/15 04:54:44;;;;;;;1.50;1.33;;;22.50;99.90;;;;;;5091889;28;20206;-81
2023/07/15 04:57:16;;;;;;;2.27;1.30;;;22.40;99.90;;;;;;5091747;28;20199;-81
2023/07/15 04:59:48;;;;;;;1.67;1.30;;;22.30;99.90;;;;;;5091771;28;20634;-81
2023/07/15 05:02:19;;;;;;;2.30;1.47;;;22.20;99.90;;;;;;5090932;28;20214;-81
2023/07/15 05:04:50;;;;;;;2.10;1.37;;;22.10;99.90;;;;;;5091903;28;20231;-81
2023/07/15 05:07:21;;;;;;;1.97;1.40;;;22.00;99.90;;;;;;5092031;28;20223;-81
2023/07/15 05:09:54;;;;;;;6.63;3.13;;;22.00;99.90;;;;;;5096827;28;20203;-81
2023/07/15 05:12:24;;;;;;;3.97;2.30;;;21.90;99.90;;;;;;5097634;28;20229;-81
2023/07/15 05:14:56;;;;;;;2.53;1.43;;;21.80;99.90;;;;;;5098671;28;20210;-80
2023/07/15 05:17:27;;;;;;;4.53;1.83;;;21.70;99.90;;;;;;5088586;28;20203;-81
2023/07/15 05:19:58;;;;;;;3.90;1.37;;;21.60;99.90;;;;;;5083228;28;20207;-81
2023/07/15 05:22:30;;;;;;;3.20;1.87;;;21.50;99.90;;;;;;5087163;28;20314;-82
2023/07/15 05:25:02;;;;;;;2.60;1.70;;;21.40;99.90;;;;;;5086763;28;20722;-80
2023/07/15 05:27:33;;;;;;;3.00;1.60;;;21.30;99.90;;;;;;5090936;28;20237;-81
2023/07/15 05:30:04;;;;;;;4.53;1.67;;;21.20;99.90;;;;;;5096864;28;20234;-80
2023/07/15 05:32:35;;;;;;;1.93;1.40;;;21.20;99.90;;;;;;5090997;28;20206;-81
2023/07/15 05:35:06;;;;;;;1.93;1.50;;;21.10;99.90;;;;;;5092289;28;20211;-82
2023/07/15 05:37:37;;;;;;;3.70;1.57;;;21.10;99.90;;;;;;5089314;28;20213;-83
2023/07/15 05:40:12;;;;;;;3.73;1.50;;;21.00;99.90;;;;;;5087902;28;20211;-82
2023/07/15 05:42:43;;;;;;;2.20;1.50;;;20.90;99.90;;;;;;5089284;28;20225;-82
2023/07/15 05:45:14;;;;;;;2.33;1.40;;;20.90;99.90;;;;;;5089025;28;20206;-82
2023/07/15 05:47:45;;;;;;;2.73;1.30;;;20.70;99.90;;;;;;5089625;28;20202;-80
2023/07/15 05:50:16;;;;;;;1.93;1.50;;;20.70;99.90;;;;;;5089937;28;20222;-81
2023/07/15 05:52:46;;;;;;;2.20;1.40;;;20.60;99.90;;;;;;5089597;28;20287;-80
2023/07/15 05:55:20;;;;;;;2.33;1.33;;;20.60;99.90;;;;;;5090884;28;20289;-81
2023/07/15 05:57:51;;;;;;;1.90;1.27;;;20.50;99.90;;;;;;5090938;28;20191;-81
2023/07/15 06:00:22;;;;;;;3.77;1.40;;;20.60;99.90;;;;;;5090998;28;20228;-80
2023/07/15 06:02:52;;;;;;;1.73;1.50;;;20.50;99.90;;;;;;5088698;28;20215;-81
2023/07/15 06:05:23;;;;;;;3.67;1.70;;;20.50;99.90;;;;;;5087165;28;20637;-80
2023/07/15 06:07:54;;;;;;;1.43;1.30;;;20.40;99.90;;;;;;5090505;28;20202;-81
2023/07/15 06:10:26;;;;;;;3.03;1.67;;;20.40;99.90;;;;;;5089494;28;20199;-81
2023/07/15 06:12:57;;;;;;;2.37;1.60;;;20.30;99.90;;;;;;5089661;28;20508;-81
2023/07/15 06:15:28;;;;;;;3.13;1.60;;;20.30;99.90;;;;;;5090376;28;20199;-81
2023/07/15 06:17:59;;;;;;;2.37;1.63;;;20.30;99.90;;;;;;5090627;28;20222;-80
2023/07/15 06:20:30;;;;;;;1.77;1.50;;;20.20;99.90;;;;;;5090886;28;20226;-81
2023/07/15 06:23:01;;;;;;;1.43;1.30;;;20.20;99.90;;;;;;5089072;28;20234;-81
2023/07/15 06:25:33;;;;;;;4.53;1.50;;;20.10;99.90;;;;;;5092131;28;20640;-81
2023/07/15 06:28:04;;;;;;;1.70;1.50;;;20.10;99.90;;;;;;5083087;28;20203;-82
2023/07/15 06:30:35;;;;;;;4.93;1.63;;;20.00;99.90;;;;;;5091020;28;20298;-81
2023/07/15 06:33:06;;;;;;;2.00;1.60;;;20.00;99.90;;;;;;5089680;28;20242;-82
2023/07/15 06:35:37;;;;;;;1.73;1.50;;;19.90;99.90;;;;;;5090837;28;20196;-81
2023/07/15 06:38:07;;;;;;;5.60;1.40;;;19.90;99.90;;;;;;5089940;28;20308;-81
2023/07/15 06:40:40;;;;;;;2.83;1.40;;;19.80;99.90;;;;;;5084382;28;20229;-81
2023/07/15 06:43:11;;;;;;;3.30;1.37;;;19.70;99.90;;;;;;5088868;28;20222;-81
2023/07/15 06:45:42;;;;;;;3.53;1.43;;;19.80;99.90;;;;;;5092774;28;20203;-82
2023/07/15 06:48:12;;;;;;;2.97;1.37;;;19.70;99.90;;;;;;5092513;28;20204;-82
2023/07/15 06:50:43;;;;;;;3.17;1.80;;;19.70;99.90;;;;;;5091057;28;20203;-81
2023/07/15 06:53:14;;;;;;;3.43;1.83;;;19.60;99.90;;;;;;5089514;28;20561;-81
2023/07/15 06:55:46;;;;;;;2.90;1.53;;;19.50;99.90;;;;;;5091072;28;20195;-81
2023/07/15 06:58:17;;;;;;;2.43;1.60;;;19.50;99.90;;;;;;5092030;28;20225;-81
2023/07/15 07:00:48;;;;;;;3.10;1.73;;;19.50;99.90;;;;;;5088522;28;20199;-83
2023/07/15 07:03:19;;;;;;;2.57;1.50;;;19.40;99.90;;;;;;5092290;28;20251;-81
2023/07/15 07:05:50;;;;;;;2.47;1.50;;;19.30;99.90;;;;;;5092338;28;20195;-82
2023/07/15 07:08:23;;;;;;;2.17;1.30;;;19.20;99.90;;;;;;5091978;28;20582;-83
2023/07/15 07:10:55;;;;;;;2.57;1.70;;;19.20;99.90;;;;;;5075010;28;20653;-83
2023/07/15 07:13:26;;;;;;;3.70;1.60;;;19.20;99.90;;;;;;5093796;28;20205;-83
2023/07/15 07:15:58;;;;;;;2.03;1.83;;;19.10;99.90;;;;;;5094861;28;20195;-83
2023/07/15 07:18:29;;;;;;;6.73;1.90;;;19.10;99.90;;;;;;5092705;28;20544;-83
2023/07/15 07:21:02;;;;;;;3.67;1.77;;;19.00;99.90;;;;;;5092025;28;20392;-83
2023/07/15 07:23:34;;;;;;;3.27;1.67;;;18.90;99.90;;;;;;5113468;28;20234;-84
2023/07/15 07:26:07;;;;;;;2.90;1.30;;;18.90;99.90;;;;;;5099695;28;20183;-83
2023/07/15 07:28:43;;;;;;;2.37;1.50;;;18.90;99.90;;;;;;5108301;28;20274;-83
2023/07/15 07:31:17;;;;;;;1.63;1.53;;;18.80;99.90;;;;;;5094981;28;20679;-84
2023/07/15 07:33:49;;;;;;;1.97;1.57;;;18.80;99.90;;;;;;5095734;28;20191;-83
2023/07/15 07:36:19;;;;;;;3.57;1.60;;;18.80;99.90;;;;;;5092364;28;20195;-83
2023/07/15 07:38:50;;;;;;;1.70;1.50;;;18.70;99.90;;;;;;5094383;28;20480;-84
2023/07/15 07:41:23;;;;;;;4.93;1.57;;;18.60;99.90;;;;;;5086505;28;20203;-84
2023/07/15 07:43:54;;;;;;;3.27;1.50;;;18.60;99.90;;;;;;5089771;28;20303;-83
2023/07/15 07:46:25;;;;;;;2.63;1.27;;;18.50;99.90;;;;;;5088952;28;20206;-83
2023/07/15 07:48:55;;;;;;;3.63;1.40;;;18.50;99.90;;;;;;5088006;28;20195;-83
2023/07/15 07:51:26;;;;;;;1.87;1.47;;;18.40;99.90;;;;;;5090199;28;20203;-83
2023/07/15 07:53:57;;;;;;;1.67;1.57;;;18.40;99.90;;;;;;5090441;28;20205;-85
2023/07/15 07:56:30;;;;;;;3.03;1.60;;;18.40;99.90;;;;;;5090518;28;20198;-84
2023/07/15 07:59:01;;;;;;;1.60;1.47;;;18.30;99.90;;;;;;5093144;28;20573;-83
2023/07/15 08:01:33;;;;;;;2.70;1.67;;;18.30;99.90;;;;;;5089550;28;20282;-86
2023/07/15 08:04:04;;;;;;;2.17;1.90;;;18.30;99.90;;;;;;5087555;28;20219;-83
2023/07/15 08:06:35;;;;;;;2.33;1.63;;;18.30;99.90;;;;;;5092029;28;20207;-82
2023/07/15 08:09:06;;;;;;;2.07;1.63;;;18.30;99.90;;;;;;5086256;28;20207;-82
2023/07/15 08:11:39;;;;;;;3.30;1.53;;;18.20;99.90;;;;;;5091703;28;20227;-84
2023/07/15 08:14:10;;;;;;;2.43;1.50;;;18.10;99.90;;;;;;5089607;28;20203;-83
2023/07/15 08:16:41;;;;;;;2.43;1.30;;;18.10;99.90;;;;;;5093080;28;20207;-82
2023/07/15 08:19:12;;;;;;;3.50;1.37;;;18.00;99.90;;;;;;5094330;28;20264;-82
2023/07/15 08:21:43;;;;;;;2.73;1.30;;;18.00;99.90;;;;;;5087835;28;20206;-82
2023/07/15 08:24:13;;;;;;;2.23;1.30;;;18.00;99.90;;;;;;5091393;28;20265;-81
2023/07/15 08:26:46;;;;;;;3.37;1.60;;;18.00;99.90;;;;;;5091670;28;20293;-83
2023/07/15 08:29:17;;;;;;;3.23;1.60;;;17.90;99.90;;;;;;5091854;28;20207;-81
2023/07/15 08:31:48;;;;;;;1.87;1.30;;;17.90;99.90;;;;;;5091142;28;20285;-82
2023/07/15 08:34:19;;;;;;;2.10;1.20;;;17.90;99.90;;;;;;5092176;28;20728;-82
2023/07/15 08:36:51;;;;;;;2.63;1.23;;;17.90;99.90;;;;;;5092331;28;20286;-82
2023/07/15 08:39:22;;;;;;;1.60;1.40;;;17.80;99.90;;;;;;5092108;28;20688;-83
2023/07/15 08:41:57;;;;;;;2.63;1.70;;;17.70;99.90;;;;;;5087016;28;20286;-82
2023/07/15 08:44:27;;;;;;;2.20;1.40;;;17.70;99.90;;;;;;5088856;28;20233;-82
2023/07/15 08:46:59;;;;;;;3.73;1.63;;;17.70;99.90;;;;;;5091850;28;20546;-82
2023/07/15 08:49:31;;;;;;;2.90;1.40;;;17.70;99.90;;;;;;5092704;28;20203;-81
2023/07/15 08:52:04;;;;;;;2.40;1.60;;;17.60;99.90;;;;;;5090818;28;20203;-83
2023/07/15 08:54:35;;;;;;;2.53;1.57;;;17.60;99.90;;;;;;5091820;28;20201;-81
2023/07/15 08:57:09;;;;;;;2.83;1.50;;;17.60;99.90;;;;;;5091533;28;20195;-81
2023/07/15 08:59:40;;;;;;;2.57;1.73;;;17.50;99.90;;;;;;5089944;28;20191;-82
2023/07/15 09:02:10;;;;;;;1.43;1.10;;;17.50;99.90;;;;;;5090605;28;20687;-82
2023/07/15 09:04:41;;;;;;;1.93;1.00;;;17.50;99.90;;;;;;5090269;28;20230;-82
2023/07/15 09:07:12;;;;;;;1.63;1.37;;;17.40;99.90;;;;;;5090385;28;20233;-82
2023/07/15 09:09:44;;;;;;;3.27;1.30;;;17.40;99.90;;;;;;5091559;28;20222;-82
2023/07/15 09:12:17;;;;;;;3.07;1.30;;;17.30;99.90;;;;;;5089521;28;20195;-82
2023/07/15 09:14:48;;;;;;;1.83;1.20;;;17.40;99.90;;;;;;5092031;28;20547;-81
2023/07/15 09:17:24;;;;;;;2.33;1.70;;;17.30;99.90;;;;;;5090915;28;20190;-82
2023/07/15 09:19:55;;;;;;;2.50;1.20;;;17.30;99.90;;;;;;5091899;28;20195;-82
2023/07/15 09:22:26;;;;;;;3.57;1.40;;;17.30;99.90;;;;;;5090883;28;20203;-81
2023/07/15 09:25:04;;;;;;;2.37;1.53;;;17.30;99.90;;;;;;5092185;28;20219;-82
2023/07/15 09:27:41;;;;;;;2.10;1.47;;;17.20;99.90;;;;;;5089291;28;20300;-83
2023/07/15 09:30:12;;;;;;;2.43;1.30;;;17.10;99.90;;;;;;5091926;28;20237;-83
2023/07/15 09:32:43;;;;;;;2.17;1.40;;;17.10;99.90;;;;;;5087184;28;20613;-83
2023/07/15 09:35:15;;;;;;;2.27;1.27;;;17.00;99.90;;;;;;5093002;28;20198;-83
2023/07/15 09:37:49;;;;;;;2.90;1.77;;;17.00;99.90;;;;;;5107051;28;20198;-83
2023/07/15 09:40:20;;;;;;;3.07;1.20;;;17.10;99.90;;;;;;5110045;28;20207;-82
2023/07/15 09:42:57;;;;;;;1.70;1.27;;;17.10;99.90;;;;;;5101527;28;20206;-82
2023/07/15 09:45:35;;;;;;;2.10;1.20;;;17.10;99.90;;;;;;5091062;28;20317;-82
2023/07/15 09:48:07;;;;;;;2.07;1.20;;;17.00;99.90;;;;;;5090995;28;20202;-82
2023/07/15 09:50:40;;;;;;;3.83;1.43;;;16.90;99.90;;;;;;5090489;28;20282;-82
2023/07/15 09:53:11;;;;;;;2.87;1.50;;;16.90;99.90;;;;;;5090691;28;20199;-81
2023/07/15 09:55:42;;;;;;;2.80;1.20;;;16.80;99.90;;;;;;5091266;28;20626;-82
2023/07/15 09:58:23;;;;;;;2.37;1.70;;;16.90;99.90;;;;;;5091365;28;20254;-82
2023/07/15 10:00:58;;;;;;;3.47;1.57;;;16.90;99.90;;;;;;5089844;28;20226;-82
2023/07/15 10:03:34;;;;;;;1.77;1.30;;;16.80;99.90;;;;;;5091327;28;20562;-82
2023/07/15 10:06:06;;;;;;;2.70;1.60;;;16.80;99.90;;;;;;5091100;28;20565;-82
2023/07/15 10:08:37;;;;;;;1.30;1.20;;;16.80;99.90;;;;;;5090992;28;20199;-82
2023/07/15 10:11:10;;;;;;;1.93;1.40;;;16.70;99.90;;;;;;5087308;28;20641;-81
2023/07/15 10:13:43;;;;;;;2.50;1.40;;;16.70;99.90;;;;;;5086190;28;20214;-82
2023/07/15 10:16:13;;;;;;;1.87;1.20;;;16.70;99.90;;;;;;5085797;28;20207;-81
2023/07/15 10:18:47;;;;;;;3.17;1.43;;;16.70;99.90;;;;;;5085285;28;20203;-83
2023/07/15 10:21:18;;;;;;;1.77;1.60;;;16.70;99.90;;;;;;5093067;28;20271;-81
2023/07/15 10:23:48;;;;;;;2.53;1.30;;;16.70;99.90;;;;;;5094200;28;20558;-82
2023/07/15 10:26:22;;;;;;;5.70;1.90;;;16.70;99.90;;;;;;5094970;28;20226;-82
2023/07/15 10:28:55;;;;;;;3.37;1.43;;;16.70;99.90;;;;;;5094617;28;20203;-82
2023/07/15 10:31:27;;;;;;;3.10;1.40;;;16.70;99.90;;;;;;5094156;28;20298;-82
2023/07/15 10:34:01;;;;;;;2.37;1.70;;;16.70;99.90;;;;;;5095206;28;20191;-83
2023/07/15 10:36:40;;;;;;;2.43;1.30;;;16.70;99.90;;;;;;5095209;28;20797;-83
2023/07/15 10:39:16;;;;;;;1.67;1.10;;;16.60;99.90;;;;;;5092094;28;20302;-82
2023/07/15 10:41:48;;;;;;;2.43;1.20;;;16.60;99.90;;;;;;5094245;28;20203;-83
2023/07/15 10:44:22;;;;;;;3.47;1.40;;;16.60;99.90;;;;;;5094815;28;20298;-82
2023/07/15 10:47:04;;;;;;;1.77;1.40;;;16.70;99.90;;;;;;5094498;28;20216;-83
2023/07/15 10:49:36;;;;;;;1.57;1.30;;;16.70;99.90;;;;;;5092523;28;20540;-83
2023/07/15 10:52:09;;;;;;;2.27;1.33;;;16.70;99.90;;;;;;5093848;28;20203;-82
2023/07/15 10:54:41;;;;;;;1.90;1.50;;;16.70;99.90;;;;;;5094692;28;20285;-81
2023/07/15 10:57:14;;;;;;;1.87;1.20;;;16.60;99.90;;;;;;5090933;28;20648;-82
2023/07/15 10:59:47;;;;;;;1.93;1.50;;;16.70;99.90;;;;;;5094206;28;20282;-82
2023/07/15 11:02:18;;;;;;;2.83;1.40;;;16.60;99.90;;;;;;5089343;28;20202;-81
2023/07/15 11:04:49;;;;;;;1.90;1.20;;;16.60;99.90;;;;;;5094447;28;20231;-82
2023/07/15 11:07:20;;;;;;;2.33;1.30;;;16.50;99.90;;;;;;5094237;28;20198;-82
2023/07/15 11:09:51;;;;;;;3.80;1.30;;;16.50;99.90;;;;;;5093950;28;20277;-82
2023/07/15 11:12:22;;;;;;;1.83;1.03;;;16.40;99.90;;;;;;5092995;28;20195;-81
2023/07/15 11:14:54;;;;;;;2.73;1.50;;;16.40;99.90;;;;;;5094249;28;20392;-82
2023/07/15 11:17:25;;;;;;;2.17;1.50;;;16.40;99.90;;;;;;5091203;28;20201;-82
2023/07/15 11:19:56;;;;;;;1.77;1.37;;;16.30;99.90;;;;;;5092536;28;20203;-81
2023/07/15 11:22:27;;;;;;;3.70;1.50;;;16.20;99.90;;;;;;5092687;28;20207;-83
2023/07/15 11:24:59;;;;;;;1.50;1.20;;;16.20;99.90;;;;;;5093908;28;20227;-82
2023/07/15 11:27:30;;;;;;;2.33;1.30;;;16.10;99.90;;;;;;5093762;28;20731;-82
2023/07/15 11:30:03;;;;;;;2.60;1.40;;;16.10;99.90;;;;;;5093935;28;20221;-82
2023/07/15 11:32:34;;;;;;;2.73;1.50;;;16.00;99.90;;;;;;5091852;28;20191;-82
2023/07/15 11:35:13;;;;;;;2.33;1.60;;;16.00;99.90;;;;;;5094045;28;20207;-82
2023/07/15 11:37:47;;;;;;;2.20;1.40;;;16.00;99.90;;;;;;5091062;28;20242;-84
2023/07/15 11:40:18;;;;;;;2.63;1.40;;;16.00;99.90;;;;;;5088460;28;20210;-82
2023/07/15 11:42:51;;;;;;;2.63;1.80;;;15.90;99.90;;;;;;5092203;28;20198;-81
2023/07/15 11:45:25;;;;;;;3.73;1.73;;;15.80;99.90;;;;;;5090351;28;20740;-83
2023/07/15 11:47:57;;;;;;;3.03;1.50;;;15.80;99.90;;;;;;5089651;28;20775;-82
2023/07/15 11:50:28;;;;;;;1.47;1.37;;;15.80;99.90;;;;;;5095779;28;20214;-82
2023/07/15 11:52:59;;;;;;;3.83;1.80;;;15.80;99.90;;;;;;5093428;28;20290;-82
2023/07/15 11:55:31;;;;;;;2.17;1.43;;;15.90;99.90;;;;;;5095952;28;20256;-82
2023/07/15 11:58:02;;;;;;;2.07;1.47;;;15.80;99.90;;;;;;5103333;28;20199;-82
2023/07/15 12:00:36;;;;;;;5.83;1.60;;;15.80;99.90;;;;;;5094930;28;20198;-82
2023/07/15 12:03:09;;;;;;;5.47;1.90;;;15.70;99.90;;;;;;5093819;28;20211;-82
2023/07/15 12:05:40;;;;;;;2.80;1.60;;;15.70;99.90;;;;;;5093879;28;20219;-82
2023/07/15 12:08:14;;;;;;;2.70;1.60;;;15.70;99.90;;;;;;5090020;28;20281;-82
2023/07/15 12:10:51;;;;;;;2.40;1.57;;;15.60;99.90;;;;;;5092991;28;20195;-81
2023/07/15 12:13:22;;;;;;;2.57;1.40;;;15.70;99.90;;;;;;5089242;28;20195;-82
2023/07/15 12:15:55;;;;;;;2.50;1.60;;;15.60;99.90;;;;;;5093305;28;20213;-82
2023/07/15 12:18:26;;;;;;;4.83;1.73;;;15.60;99.90;;;;;;5093060;28;20203;-81
2023/07/15 12:20:57;;;;;;;3.27;1.50;;;15.60;99.90;;;;;;5088803;28;20241;-83
2023/07/15 12:23:27;;;;;;;2.50;1.63;;;15.60;99.90;;;;;;5090072;28;20209;-82
2023/07/15 12:25:58;;;;;;;1.83;1.50;;;15.40;99.90;;;;;;5091360;28;20218;-82
2023/07/15 12:28:29;;;;;;;1.80;1.53;;;15.40;99.90;;;;;;5091496;28;20239;-82
2023/07/15 12:31:02;;;;;;;3.97;1.60;;;15.40;99.90;;;;;;5087481;28;20289;-82
2023/07/15 12:33:33;;;;;;;2.53;1.80;;;15.40;99.90;;;;;;5088640;28;21423;-82
2023/07/15 12:36:04;;;;;;;3.10;1.80;;;15.30;99.90;;;;;;5093073;28;20286;-82
2023/07/15 12:38:35;;;;;;;3.10;1.50;;;15.30;99.90;;;;;;5092434;28;20695;-82
2023/07/15 12:41:07;;;;;;;2.80;1.80;;;15.30;99.90;;;;;;5091904;28;20492;-83
2023/07/15 12:43:38;;;;;;;5.40;1.83;;;15.30;99.90;;;;;;5092050;28;20203;-83
2023/07/15 12:46:11;;;;;;;1.90;1.40;;;15.30;99.90;;;;;;5092565;28;20230;-83
2023/07/15 12:48:43;;;;;;;4.10;1.63;;;15.30;99.90;;;;;;5092274;28;20199;-81
2023/07/15 12:51:14;;;;;;;4.07;1.77;;;15.20;99.90;;;;;;5091335;28;20196;-83
2023/07/15 12:53:44;;;;;;;2.43;1.70;;;15.30;99.90;;;;;;5092190;28;20292;-81
2023/07/15 12:56:15;;;;;;;3.50;1.80;;;15.30;99.90;;;;;;5092428;28;20209;-82
2023/07/15 12:58:47;;;;;;;3.53;1.80;;;15.30;99.90;;;;;;5090479;28;20203;-82
2023/07/15 13:01:19;;;;;;;4.13;2.17;;;15.30;99.90;;;;;;5090924;28;20211;-82
2023/07/15 13:03:50;;;;;;;2.23;1.70;;;15.30;99.90;;;;;;5092050;28;20252;-85
2023/07/15 13:06:21;;;;;;;4.60;1.77;;;15.30;99.90;;;;;;5092249;28;20306;-82
2023/07/15 13:08:52;;;;;;;3.50;2.10;;;15.30;99.90;;;;;;5088534;28;20256;-82
2023/07/15 13:11:23;;;;;;;3.43;2.10;;;15.30;99.90;;;;;;5082863;28;20203;-82